Terminal Aerodrome Forecast
Issued by NWS

Home | Current Version | Previous Version | Graphics & Text | Print | Product List | Glossary On
Versions: 1 2 3 4 5 6 7 8 9 10 11 12 13 14 15
000
FTUS43 KABR 172300
TAFATY
TAF
KATY 172324Z 1800/1824 19006KT P6SM BKN250
     FM180600 20006KT P6SM -SHRA VCTS SCT040CB BKN070
     FM180900 23008KT P6SM SKC
     FM181700 29014KT P6SM BKN050=

USA.gov is the U.S. government's official web portal to all federal, state and local government web resources and services.